Eleonora E — MEDD4 — position and weather

sailwx.info

Track history (hours):
 
Tides and Currents Weather Stations Pressure Air Temp Water Temp Dewpoint Dewpoint Depression Visibility Wind Speed Wind Dir Waves Ship Positions

Eleonora E

Last reported at 2014-Oct-25 10:09 UTC. Time now 2014-Dec-23 02:18 UTC.
Position N 41°14' E 002°33'.
Warning: this ship's position is 58 days out of date.

Length 50 m; draft 5.2 m.

Type: Sailing vessel. MMSI: 235008680.

Date/timePositionNaut miles runAvg speedWind from/ knotsBaromVisibWave heightAir tempDewpointWater temp
2014-Oct-25 10:09N 41°14' E 002°33'710.2
2014-Oct-25 09:30N 41°16' E 002°41'2410.8
2014-Oct-25 07:15N 41°23' E 003°12'1210.5
2014-Oct-25 06:09N 41°28' E 003°26'2011.1
2014-Oct-25 04:22N 41°40' E 003°47'16210.1
2014-Oct-24 12:24N 43°12' E 006°47'1010.4
2014-Oct-24 11:26N 43°20' E 006°55'1010.3
2014-Oct-24 10:27N 43°27' E 007°06'910.4
2014-Oct-24 09:33N 43°33' E 007°16'  
Track history (hours):
 
Tides and Currents Weather Stations Pressure Air Temp Water Temp Dewpoint Dewpoint Depression Visibility Wind Speed Wind Dir Waves Ship Positions

Eleonora E

Last reported at 2014-Oct-25 10:09 UTC. Time now 2014-Dec-23 02:18 UTC.
Position N 41°14' E 002°33'.
Warning: this ship's position is 58 days out of date.

Length 50 m; draft 5.2 m.

Type: Sailing vessel. MMSI: 235008680.

Date/timePositionNaut miles runAvg speedWind from/ knotsBaromVisibWave heightAir tempDewpointWater temp
2014-Oct-25 10:09N 41°14' E 002°33'710.2
2014-Oct-25 09:30N 41°16' E 002°41'2410.8
2014-Oct-25 07:15N 41°23' E 003°12'1210.5
2014-Oct-25 06:09N 41°28' E 003°26'2011.1
2014-Oct-25 04:22N 41°40' E 003°47'16210.1
2014-Oct-24 12:24N 43°12' E 006°47'1010.4
2014-Oct-24 11:26N 43°20' E 006°55'1010.3
2014-Oct-24 10:27N 43°27' E 007°06'910.4
2014-Oct-24 09:33N 43°33' E 007°16'  

Dump ship's entire track history